Aviation Digital Data Service (ADDS)

Output produced by METARs form (1103 UTC 13 December 2017)
found at http://www.aviationweather.gov/adds/metars/
 
LYPG 131030Z 13011KT 080V150 7000 RA FEW016 SCT023 BKN034 14/12 Q1019 TEMPO 5000
TAF LYPG 130500Z 1306/1406 16007KT 9999 FEW010 BKN033 BKN070 TX15/1312Z TN07/1406Z 
     TEMPO 1306/1322 4000 RA BR 
     PROB30 
     TEMPO 1306/1312 17017KT
       
LYTV 131030Z 17008KT 140V210 8000 -RA FEW010 BKN015 16/14 Q1019 NOSIG
TAF LYTV 130500Z 1306/1406 18008KT 9999 FEW010 BKN030 BKN070 TX17/1312Z TN09/1406Z 
     TEMPO 1306/1320 4000 RA BR 
     PROB40 
     TEMPO 1306/1312 19018KT